Terminal Aerodrome Forecast
Issued by NWS

Home | Current Version | Previous Version | Text Only | Print | Product List | Glossary On
Versions: 1 2 3 4 5 6 7 8 9 10 11 12 13 14 15 16 17 18 19 20 21 22
000
FTUS45 KTWC 302300
TAFOLS
TAF
KOLS 302322Z 3100/3124 26007KT P6SM SCT090
     FM310200 16004KT P6SM SKC
     FM310500 VRB03KT P6SM SKC
     FM311900 25011KT P6SM SCT090=

USA.gov is the U.S. government's official web portal to all federal, state and local government web resources and services.